createdAt,value
2022-10-18T00:01:00.875Z,8.14
2022-10-18T00:03:28.736Z,8.18
2022-10-18T00:05:56.407Z,8.19
2022-10-18T00:08:24.100Z,8.26
2022-10-18T00:10:51.664Z,8.12
2022-10-18T00:13:20.065Z,8.17
2022-10-18T00:15:57.358Z,8.03
2022-10-18T00:18:25.163Z,8.25
2022-10-18T00:21:10.491Z,8.10
2022-10-18T00:23:38.028Z,7.95
2022-10-18T00:26:20.136Z,8.17
2022-10-18T00:28:51.865Z,8.02
2022-10-18T00:31:39.705Z,8.03
2022-10-18T00:34:14.881Z,7.99
2022-10-18T00:36:43.911Z,7.97
2022-10-18T00:39:19.721Z,8.02
2022-10-18T00:41:48.560Z,7.97
2022-10-18T00:44:15.974Z,7.96
2022-10-18T00:46:46.665Z,7.96
2022-10-18T00:49:27.345Z,7.83
2022-10-18T00:52:07.714Z,7.90
2022-10-18T00:54:39.100Z,7.94
2022-10-18T00:57:07.397Z,7.84
2022-10-18T00:59:36.112Z,7.84
2022-10-18T01:02:05.055Z,7.89
2022-10-18T01:04:32.604Z,7.96
2022-10-18T01:07:27.381Z,8.04
2022-10-18T01:10:14.069Z,8.15
2022-10-18T01:12:56.068Z,8.11
2022-10-18T01:15:26.374Z,8.02
2022-10-18T01:18:21.031Z,7.96
2022-10-18T01:21:00.714Z,8.00
2022-10-18T01:24:09.262Z,7.96
2022-10-18T01:26:44.918Z,7.95
2022-10-18T01:29:24.606Z,7.83
2022-10-18T01:31:59.659Z,7.86
2022-10-18T01:34:31.596Z,7.70
2022-10-18T01:37:00.642Z,7.70
2022-10-18T01:39:31.894Z,7.57
2022-10-18T01:42:03.026Z,7.61
2022-10-18T01:44:32.955Z,7.47
2022-10-18T01:47:01.303Z,7.48
2022-10-18T01:49:28.784Z,7.48
2022-10-18T01:51:56.359Z,7.54
2022-10-18T01:54:33.024Z,7.45
2022-10-18T01:57:03.367Z,7.38
2022-10-18T01:59:46.177Z,7.52
2022-10-18T02:02:35.183Z,7.45
2022-10-18T02:05:11.643Z,7.49
2022-10-18T02:08:05.626Z,7.47
2022-10-18T02:10:48.652Z,7.38
2022-10-18T02:13:20.666Z,7.50
2022-10-18T02:15:52.456Z,7.31
2022-10-18T02:18:28.722Z,7.42
2022-10-18T02:20:57.391Z,7.33
2022-10-18T02:23:26.652Z,7.32
2022-10-18T02:25:54.639Z,7.28
2022-10-18T02:28:22.636Z,7.18
2022-10-18T02:30:58.445Z,7.29
2022-10-18T02:33:34.296Z,7.24
2022-10-18T02:36:10.812Z,7.35
2022-10-18T02:38:41.728Z,7.25
2022-10-18T02:41:09.167Z,7.31
2022-10-18T02:43:36.746Z,7.38
2022-10-18T02:46:04.267Z,7.40
2022-10-18T02:48:31.796Z,7.32
2022-10-18T02:50:59.250Z,7.24
2022-10-18T02:53:26.714Z,7.20
2022-10-18T02:55:54.262Z,7.10
2022-10-18T02:58:21.750Z,7.13
2022-10-18T03:00:52.158Z,7.12
2022-10-18T03:03:20.740Z,7.08
2022-10-18T03:05:52.600Z,7.06
2022-10-18T03:08:20.440Z,7.08
2022-10-18T03:10:47.928Z,7.16
2022-10-18T03:13:16.008Z,7.00
2022-10-18T03:15:43.671Z,7.12
2022-10-18T03:18:11.125Z,7.13
2022-10-18T03:20:38.767Z,7.27
2022-10-18T03:23:07.248Z,7.22
2022-10-18T03:25:34.759Z,7.11
2022-10-18T03:28:02.315Z,7.16
2022-10-18T03:30:29.887Z,7.19
2022-10-18T03:32:57.526Z,7.16
2022-10-18T03:35:25.066Z,7.20
2022-10-18T03:37:52.589Z,7.18
2022-10-18T03:40:20.739Z,7.15
2022-10-18T03:42:48.271Z,7.00
2022-10-18T03:45:15.826Z,7.06
2022-10-18T03:47:43.312Z,6.98
2022-10-18T03:50:11.006Z,7.09
2022-10-18T03:52:38.525Z,7.23
2022-10-18T03:55:06.817Z,7.16
2022-10-18T03:57:34.336Z,7.07
2022-10-18T04:00:02.260Z,7.16
2022-10-18T04:02:40.584Z,7.19
2022-10-18T04:05:09.009Z,7.11
2022-10-18T04:10:10.581Z,7.17
2022-10-18T04:12:38.300Z,7.14
2022-10-18T04:15:06.413Z,7.16
2022-10-18T04:17:34.525Z,7.05
2022-10-18T04:20:02.388Z,7.04
2022-10-18T04:22:30.258Z,6.98
2022-10-18T04:24:57.878Z,6.92
2022-10-18T04:27:25.449Z,6.79
2022-10-18T04:29:53.209Z,6.82
2022-10-18T04:32:20.633Z,6.74
2022-10-18T04:34:48.140Z,6.80
2022-10-18T04:37:15.660Z,6.71
2022-10-18T04:39:51.161Z,6.64
2022-10-18T04:42:22.028Z,6.55
2022-10-18T04:44:49.675Z,6.59
2022-10-18T04:47:18.495Z,6.44
2022-10-18T04:49:46.319Z,6.60
2022-10-18T04:52:14.974Z,6.68
2022-10-18T04:54:42.462Z,6.56
2022-10-18T04:57:10.046Z,6.55
2022-10-18T04:59:37.566Z,6.52
2022-10-18T05:02:05.119Z,6.44
2022-10-18T05:04:32.632Z,6.48
2022-10-18T05:07:00.163Z,6.41
2022-10-18T05:09:27.802Z,6.28
2022-10-18T05:11:55.302Z,6.37
2022-10-18T05:14:22.812Z,6.39
2022-10-18T05:16:50.323Z,6.38
2022-10-18T05:19:17.887Z,6.45
2022-10-18T05:21:47.551Z,6.57
2022-10-18T05:24:15.111Z,6.64
2022-10-18T05:26:42.641Z,6.60
2022-10-18T05:29:10.380Z,6.70
2022-10-18T05:31:37.890Z,6.74
2022-10-18T05:34:05.447Z,6.84
2022-10-18T05:36:33.017Z,6.96
2022-10-18T05:39:04.925Z,7.02
2022-10-18T05:41:32.924Z,7.16
2022-10-18T05:44:04.734Z,7.40
2022-10-18T05:46:33.127Z,7.37
2022-10-18T05:49:01.071Z,7.44
2022-10-18T05:51:28.607Z,7.58
2022-10-18T05:53:56.139Z,7.47
2022-10-18T05:56:23.615Z,7.67
2022-10-18T05:58:52.194Z,7.81
2022-10-18T06:01:20.175Z,7.95
2022-10-18T06:03:47.871Z,8.08
2022-10-18T06:06:15.678Z,8.18
2022-10-18T06:08:44.375Z,8.31
2022-10-18T06:11:14.877Z,8.59
2022-10-18T06:13:43.788Z,8.72
2022-10-18T06:16:13.143Z,8.85
2022-10-18T06:18:51.710Z,8.97
2022-10-18T06:21:19.818Z,9.25
2022-10-18T06:23:51.506Z,9.37
2022-10-18T06:26:19.365Z,9.67
2022-10-18T06:28:46.836Z,9.94
2022-10-18T06:31:16.325Z,10.28
2022-10-18T06:33:45.827Z,10.54
2022-10-18T06:36:16.184Z,10.86
2022-10-18T06:38:44.275Z,11.02
2022-10-18T06:41:12.101Z,11.22
2022-10-18T06:43:39.819Z,11.45
2022-10-18T06:46:08.330Z,11.68
2022-10-18T06:48:37.039Z,11.86
2022-10-18T06:51:07.438Z,12.28
2022-10-18T06:53:44.040Z,12.60
2022-10-18T06:56:20.832Z,12.78
2022-10-18T06:58:48.318Z,13.14
2022-10-18T07:01:18.357Z,13.46
2022-10-18T07:03:47.622Z,14.00
2022-10-18T07:06:17.788Z,14.68
2022-10-18T07:08:46.755Z,15.82
2022-10-18T07:11:20.835Z,21.38
2022-10-18T07:13:48.306Z,26.52
2022-10-18T07:16:18.654Z,28.60
2022-10-18T07:18:49.861Z,30.07
2022-10-18T07:21:20.190Z,30.81
2022-10-18T07:23:47.941Z,31.56
2022-10-18T07:26:22.880Z,32.53
2022-10-18T07:28:55.194Z,33.69
2022-10-18T07:31:23.637Z,34.95
2022-10-18T07:33:52.124Z,34.42
2022-10-18T07:36:21.349Z,36.20
2022-10-18T07:38:49.609Z,37.80
2022-10-18T07:41:17.479Z,35.75
2022-10-18T07:43:47.632Z,37.25
2022-10-18T07:48:59.560Z,36.25
2022-10-18T07:51:28.118Z,37.13
2022-10-18T07:53:55.676Z,39.05
2022-10-18T07:56:23.191Z,36.92
2022-10-18T07:58:52.764Z,34.81
2022-10-18T08:01:22.672Z,33.27
2022-10-18T08:03:53.584Z,35.67
2022-10-18T08:06:22.898Z,34.72
2022-10-18T08:08:50.584Z,37.54
2022-10-18T08:11:21.118Z,34.65
2022-10-18T08:13:48.785Z,34.97
2022-10-18T08:16:19.331Z,34.53
2022-10-18T08:18:47.028Z,35.89
2022-10-18T08:21:16.642Z,36.61
2022-10-18T08:23:45.109Z,38.93
2022-10-18T08:26:18.421Z,38.54
2022-10-18T08:28:53.826Z,40.00
2022-10-18T08:31:31.361Z,38.68
2022-10-18T08:33:58.919Z,35.81
2022-10-18T08:36:26.391Z,35.12
2022-10-18T08:38:53.947Z,38.15
2022-10-18T08:41:42.476Z,36.56
2022-10-18T08:44:24.027Z,39.04
2022-10-18T08:46:58.701Z,37.41
2022-10-18T08:49:46.255Z,39.16
2022-10-18T08:52:52.766Z,35.58
2022-10-18T08:55:41.063Z,37.13
2022-10-18T08:58:22.144Z,36.52
2022-10-18T09:01:01.663Z,38.03
2022-10-18T09:03:29.222Z,38.49
2022-10-18T09:06:11.962Z,39.48
2022-10-18T09:09:00.919Z,39.31
2022-10-18T09:11:44.615Z,41.31
2022-10-18T09:14:32.242Z,39.81
2022-10-18T09:17:37.356Z,40.23
2022-10-18T09:20:17.747Z,39.32
2022-10-18T09:22:54.252Z,35.34
2022-10-18T09:25:26.515Z,36.93
2022-10-18T09:28:01.068Z,38.00
2022-10-18T09:30:43.677Z,40.19
2022-10-18T09:33:26.698Z,37.99
2022-10-18T09:36:01.373Z,39.79
2022-10-18T09:38:32.781Z,37.45
2022-10-18T09:41:20.704Z,37.33
2022-10-18T09:43:54.744Z,35.80
2022-10-18T09:46:26.798Z,35.53
2022-10-18T09:49:05.938Z,37.01
2022-10-18T09:51:42.661Z,35.67
2022-10-18T09:54:31.045Z,34.65
2022-10-18T09:57:06.668Z,34.67
2022-10-18T09:59:36.352Z,31.64
2022-10-18T10:02:05.258Z,34.37
2022-10-18T10:04:33.213Z,35.31
2022-10-18T10:07:02.333Z,33.10
2022-10-18T10:09:58.105Z,31.91
2022-10-18T10:12:35.802Z,30.36
2022-10-18T10:15:27.006Z,32.77
2022-10-18T10:17:58.485Z,31.77
2022-10-18T10:20:31.898Z,32.82
2022-10-18T10:23:13.924Z,32.37
2022-10-18T10:25:42.664Z,31.58
2022-10-18T10:28:16.579Z,34.20
2022-10-18T10:30:44.557Z,33.66
2022-10-18T10:33:36.427Z,33.23
2022-10-18T10:36:15.798Z,31.92
2022-10-18T10:38:43.283Z,31.13
2022-10-18T10:41:23.862Z,33.11
2022-10-18T10:43:51.600Z,32.45
2022-10-18T10:46:20.572Z,32.22
2022-10-18T10:48:56.277Z,32.19
2022-10-18T10:51:34.110Z,33.86
2022-10-18T10:54:15.935Z,32.45
2022-10-18T10:56:58.618Z,33.08
2022-10-18T10:59:29.010Z,31.52
2022-10-18T11:02:21.752Z,31.87
2022-10-18T11:04:55.058Z,31.76
2022-10-18T11:07:41.940Z,32.89
2022-10-18T11:10:09.336Z,30.56
2022-10-18T11:12:44.741Z,32.63
2022-10-18T11:15:24.888Z,33.84
2022-10-18T11:18:10.812Z,32.81
2022-10-18T11:21:19.013Z,32.48
2022-10-18T11:23:46.697Z,33.03
2022-10-18T11:26:55.304Z,34.49
2022-10-18T11:29:52.061Z,33.79
2022-10-18T11:32:45.840Z,32.76
2022-10-18T11:35:51.860Z,31.86
2022-10-18T11:38:45.529Z,34.28
2022-10-18T11:41:15.728Z,33.03
2022-10-18T11:44:19.272Z,33.34
2022-10-18T11:47:11.676Z,32.65
2022-10-18T11:49:54.319Z,31.94
2022-10-18T11:52:39.696Z,32.38
2022-10-18T11:55:33.000Z,31.40
2022-10-18T11:58:07.063Z,30.38
2022-10-18T12:00:55.193Z,31.40
2022-10-18T12:03:41.874Z,32.90
2022-10-18T12:06:16.762Z,32.56
2022-10-18T12:08:51.563Z,31.19
2022-10-18T12:11:24.562Z,31.84
2022-10-18T12:13:57.771Z,32.58
2022-10-18T12:16:49.858Z,30.78
2022-10-18T12:19:27.445Z,31.72
2022-10-18T12:22:16.585Z,32.54
2022-10-18T12:24:44.146Z,31.89
2022-10-18T12:27:14.347Z,33.74
2022-10-18T12:29:53.333Z,32.63
2022-10-18T12:32:27.629Z,31.62
2022-10-18T12:35:05.804Z,33.90
2022-10-18T12:37:42.310Z,35.17
2022-10-18T12:40:36.100Z,31.51
2022-10-18T12:43:09.908Z,31.87
2022-10-18T12:45:50.819Z,32.65
2022-10-18T12:48:35.585Z,30.54
2022-10-18T12:51:16.891Z,32.08
2022-10-18T12:53:46.587Z,32.68
2022-10-18T12:56:29.590Z,31.72
2022-10-18T12:59:15.381Z,30.15
2022-10-18T13:01:52.111Z,31.38
2022-10-18T13:04:28.754Z,31.81
2022-10-18T13:07:05.305Z,32.19
2022-10-18T13:09:38.613Z,32.35
2022-10-18T13:12:09.098Z,32.56
2022-10-18T13:15:20.828Z,30.64
2022-10-18T13:18:21.740Z,30.95
2022-10-18T13:21:27.862Z,28.83
2022-10-18T13:24:13.866Z,27.68
2022-10-18T13:26:59.098Z,26.32
2022-10-18T13:30:00.119Z,26.37
2022-10-18T13:32:37.349Z,27.60
2022-10-18T13:35:42.772Z,27.12
2022-10-18T13:38:36.864Z,25.14
2022-10-18T13:41:11.281Z,24.12
2022-10-18T13:43:55.120Z,24.25
2022-10-18T13:46:24.843Z,24.42
2022-10-18T13:49:00.739Z,24.07
2022-10-18T13:51:56.724Z,23.80
2022-10-18T13:54:52.037Z,23.19
2022-10-18T13:57:41.100Z,23.10
2022-10-18T14:00:33.535Z,22.68
2022-10-18T14:03:31.984Z,22.52
2022-10-18T14:06:07.069Z,22.37
2022-10-18T14:08:49.727Z,22.46
2022-10-18T14:11:35.509Z,22.62
2022-10-18T14:14:15.055Z,22.16
2022-10-18T14:16:51.486Z,22.00
2022-10-18T14:19:28.886Z,22.15
2022-10-18T14:22:28.575Z,22.32
2022-10-18T14:24:58.034Z,22.14
2022-10-18T14:27:32.536Z,21.98
2022-10-18T14:30:16.635Z,22.27
2022-10-18T14:32:47.624Z,22.09
2022-10-18T14:35:32.942Z,21.71
2022-10-18T14:38:02.549Z,21.60
2022-10-18T14:40:37.889Z,21.52
2022-10-18T14:43:14.075Z,21.58
2022-10-18T14:45:42.557Z,21.63
2022-10-18T14:48:23.538Z,21.33
2022-10-18T14:50:59.426Z,21.05
2022-10-18T14:53:37.522Z,21.18
2022-10-18T14:56:07.497Z,21.04
2022-10-18T14:58:37.988Z,20.93
2022-10-18T15:01:06.048Z,20.68
2022-10-18T15:03:35.824Z,20.65
2022-10-18T15:06:05.827Z,20.45
2022-10-18T15:08:40.492Z,20.42
2022-10-18T15:11:11.888Z,20.07
2022-10-18T15:13:57.466Z,20.07
2022-10-18T15:16:30.779Z,19.73
2022-10-18T15:19:06.266Z,19.36
2022-10-18T15:21:36.924Z,19.23
2022-10-18T15:24:36.422Z,18.85
2022-10-18T15:27:19.087Z,18.58
2022-10-18T15:29:46.857Z,18.32
2022-10-18T15:32:35.579Z,18.16
2022-10-18T15:35:32.238Z,17.64
2022-10-18T15:38:21.032Z,17.31
2022-10-18T15:40:48.651Z,16.97
2022-10-18T15:43:28.288Z,16.78
2022-10-18T15:46:05.357Z,16.59
2022-10-18T15:48:39.806Z,16.24
2022-10-18T15:51:19.329Z,15.98
2022-10-18T15:53:55.671Z,15.79
2022-10-18T15:56:42.342Z,15.66
2022-10-18T15:59:27.761Z,15.36
2022-10-18T16:01:55.881Z,15.28
2022-10-18T16:04:33.099Z,15.01
2022-10-18T16:07:00.745Z,14.89
2022-10-18T16:09:29.114Z,14.65
2022-10-18T16:11:58.556Z,14.53
2022-10-18T16:14:26.428Z,14.41
2022-10-18T16:16:56.147Z,14.07
2022-10-18T16:19:24.041Z,13.81
2022-10-18T16:21:56.473Z,13.70
2022-10-18T16:24:24.419Z,13.55
2022-10-18T16:26:52.033Z,13.42
2022-10-18T16:29:24.507Z,13.13
2022-10-18T16:31:55.262Z,13.10
2022-10-18T16:34:22.819Z,12.90
2022-10-18T16:36:50.261Z,12.91
2022-10-18T16:39:19.969Z,12.81
2022-10-18T16:41:48.108Z,12.66
2022-10-18T16:44:16.752Z,12.56
2022-10-18T16:46:44.246Z,12.56
2022-10-18T16:51:54.492Z,12.47
2022-10-18T16:54:22.875Z,12.20
2022-10-18T16:56:50.572Z,11.96
2022-10-18T16:59:29.092Z,12.06
2022-10-18T17:01:56.704Z,11.78
2022-10-18T17:04:24.284Z,11.71
2022-10-18T17:06:54.330Z,11.60
2022-10-18T17:09:21.897Z,11.37
2022-10-18T17:11:49.694Z,11.39
2022-10-18T17:14:17.222Z,11.36
2022-10-18T17:16:54.863Z,11.32
2022-10-18T17:19:24.299Z,11.27
2022-10-18T17:21:51.886Z,11.28
2022-10-18T17:24:19.315Z,11.25
2022-10-18T17:26:46.803Z,11.08
2022-10-18T17:29:14.315Z,11.07
2022-10-18T17:31:42.090Z,10.91
2022-10-18T17:34:09.586Z,10.93
2022-10-18T17:36:37.334Z,10.90
2022-10-18T17:39:07.546Z,10.76
2022-10-18T17:41:35.063Z,10.55
2022-10-18T17:44:04.303Z,10.50
2022-10-18T17:46:32.004Z,10.28
2022-10-18T17:48:59.562Z,10.27
2022-10-18T17:51:27.150Z,10.28
2022-10-18T17:53:54.708Z,10.69
2022-10-18T17:56:22.285Z,10.60
2022-10-18T17:58:53.131Z,10.54
2022-10-18T18:01:23.273Z,10.51
2022-10-18T18:03:56.722Z,10.56
2022-10-18T18:06:34.147Z,10.55
2022-10-18T18:09:08.365Z,10.55
2022-10-18T18:11:38.422Z,10.44
2022-10-18T18:14:09.064Z,10.45
2022-10-18T18:16:38.934Z,10.43
2022-10-18T18:19:09.651Z,10.29
2022-10-18T18:21:41.543Z,10.31
2022-10-18T18:24:10.169Z,10.35
2022-10-18T18:26:40.019Z,10.60
2022-10-18T18:29:07.561Z,10.60
2022-10-18T18:31:40.045Z,10.34
2022-10-18T18:34:10.404Z,10.24
2022-10-18T18:36:38.767Z,10.32
2022-10-18T18:39:07.339Z,10.20
2022-10-18T18:41:35.372Z,10.24
2022-10-18T18:44:05.310Z,10.08
2022-10-18T18:46:38.234Z,9.92
2022-10-18T18:49:07.061Z,9.81
2022-10-18T18:51:38.032Z,9.95
2022-10-18T18:54:07.109Z,9.98
2022-10-18T18:56:34.755Z,9.93
2022-10-18T18:59:02.966Z,9.69
2022-10-18T19:01:32.874Z,9.46
2022-10-18T19:04:00.708Z,9.46
2022-10-18T19:06:39.794Z,9.59
2022-10-18T19:09:25.525Z,9.58
2022-10-18T19:11:55.398Z,9.38
2022-10-18T19:14:25.039Z,9.43
2022-10-18T19:16:55.147Z,9.64
2022-10-18T19:19:24.814Z,9.70
2022-10-18T19:21:54.853Z,9.62
2022-10-18T19:24:24.022Z,9.62
2022-10-18T19:26:53.885Z,9.65
2022-10-18T19:29:24.092Z,9.54
2022-10-18T19:31:56.664Z,9.08
2022-10-18T19:34:26.505Z,9.12
2022-10-18T19:36:54.207Z,8.98
2022-10-18T19:39:26.697Z,8.72
2022-10-18T19:41:56.127Z,8.54
2022-10-18T19:44:25.679Z,8.83
2022-10-18T19:46:53.591Z,8.98
2022-10-18T19:49:22.349Z,8.82
2022-10-18T19:51:49.997Z,8.90
2022-10-18T19:54:17.767Z,8.89
2022-10-18T19:56:45.355Z,8.96
2022-10-18T19:59:15.569Z,9.04
2022-10-18T20:01:44.144Z,8.93
2022-10-18T20:04:12.907Z,8.87
2022-10-18T20:06:41.361Z,8.87
2022-10-18T20:09:13.484Z,8.84
2022-10-18T20:11:43.859Z,9.13
2022-10-18T20:14:11.361Z,9.06
2022-10-18T20:16:38.831Z,9.14
2022-10-18T20:19:09.737Z,8.91
2022-10-18T20:21:37.462Z,8.83
2022-10-18T20:24:06.196Z,8.48
2022-10-18T20:26:35.790Z,8.51
2022-10-18T20:29:04.180Z,8.38
2022-10-18T20:31:35.578Z,8.47
2022-10-18T20:34:06.313Z,8.38
2022-10-18T20:36:34.762Z,8.35
2022-10-18T20:39:03.558Z,8.29
2022-10-18T20:41:34.048Z,8.32
2022-10-18T20:44:04.312Z,8.27
2022-10-18T20:46:34.128Z,8.28
2022-10-18T20:49:02.110Z,8.24
2022-10-18T20:51:29.803Z,8.14
2022-10-18T20:53:57.406Z,7.94
2022-10-18T20:56:28.904Z,8.24
2022-10-18T20:58:57.806Z,8.23
2022-10-18T21:01:28.129Z,8.29
2022-10-18T21:04:09.953Z,8.11
2022-10-18T21:06:40.980Z,8.16
2022-10-18T21:09:11.827Z,8.20
2022-10-18T21:11:44.678Z,8.40
2022-10-18T21:14:17.617Z,8.20
2022-10-18T21:16:48.645Z,8.01
2022-10-18T21:19:19.931Z,8.05
2022-10-18T21:21:50.480Z,8.11
2022-10-18T21:24:19.905Z,8.17
2022-10-18T21:26:51.165Z,8.32
2022-10-18T21:29:22.325Z,8.22
2022-10-18T21:31:54.323Z,8.15
2022-10-18T21:34:22.248Z,8.26
2022-10-18T21:36:49.738Z,8.15
2022-10-18T21:39:19.802Z,8.34
2022-10-18T21:41:47.603Z,8.35
2022-10-18T21:44:16.252Z,8.25
2022-10-18T21:46:44.413Z,8.23
2022-10-18T21:49:13.599Z,8.23
2022-10-18T21:51:41.598Z,8.17
2022-10-18T21:54:13.117Z,8.19
2022-10-18T21:56:41.370Z,8.48
2022-10-18T21:59:12.134Z,8.47
2022-10-18T22:01:40.218Z,8.28
2022-10-18T22:04:20.990Z,8.15
2022-10-18T22:06:48.991Z,8.43
2022-10-18T22:09:16.532Z,8.49
2022-10-18T22:11:49.167Z,8.45
2022-10-18T22:14:16.630Z,8.62
2022-10-18T22:16:44.185Z,8.78
2022-10-18T22:19:12.499Z,8.80
2022-10-18T22:21:41.143Z,8.67
2022-10-18T22:24:09.945Z,8.99
2022-10-18T22:26:40.214Z,8.98
2022-10-18T22:29:15.581Z,9.14
2022-10-18T22:31:46.246Z,9.51
2022-10-18T22:34:16.779Z,9.68
2022-10-18T22:36:45.820Z,9.82
2022-10-18T22:39:14.531Z,9.55
2022-10-18T22:41:42.868Z,9.47
2022-10-18T22:44:14.470Z,9.92
2022-10-18T22:46:42.811Z,9.83
2022-10-18T22:49:11.256Z,9.91
2022-10-18T22:51:38.783Z,9.77
2022-10-18T22:54:06.283Z,9.96
2022-10-18T22:56:33.791Z,9.76
2022-10-18T22:59:01.452Z,9.59
2022-10-18T23:01:29.019Z,9.69
2022-10-18T23:03:58.827Z,9.82
2022-10-18T23:06:34.189Z,9.90
2022-10-18T23:09:05.494Z,9.88
2022-10-18T23:11:34.616Z,9.93
2022-10-18T23:14:03.753Z,9.93
2022-10-18T23:16:31.668Z,9.90
2022-10-18T23:18:59.374Z,9.81
2022-10-18T23:21:28.286Z,9.92
2022-10-18T23:23:56.783Z,9.91
2022-10-18T23:26:27.579Z,9.99
2022-10-18T23:28:55.624Z,9.79
2022-10-18T23:31:29.052Z,9.78
2022-10-18T23:33:58.841Z,9.85
2022-10-18T23:36:26.849Z,9.78
2022-10-18T23:38:55.287Z,9.82
2022-10-18T23:41:23.584Z,9.74
2022-10-18T23:43:51.558Z,9.71
2022-10-18T23:46:19.721Z,9.77
2022-10-18T23:48:47.868Z,9.79
2022-10-18T23:51:17.287Z,9.68
2022-10-18T23:53:45.021Z,9.62
2022-10-18T23:56:15.786Z,9.58
2022-10-18T23:58:44.983Z,9.61
